Time;durP1;ratioP1;P1;durP2;ratioP2;P2;SDS_P1;SDS_P2;PMS_P1;PMS_P2;Temp;Humidity;BMP_temperature;BMP_pressure;BME280_temperature;BME280_humidity;BME280_pressure;Samples;Min_cycle;Max_cycle;Signal;HPM_P1;HPM_P2
2022/07/10 00:01:52;;;;;;;7.00;1.02;;;;;;;;;;5108821;28;20119;-70
2022/07/10 00:04:21;;;;;;;13.20;2.20;;;;;;;;;;5084872;28;20127;-70
2022/07/10 00:06:47;;;;;;;10.70;1.60;;;;;;;;;;5085678;28;20055;-70
2022/07/10 00:09:14;;;;;;;6.50;1.40;;;;;;;;;;5086290;28;20048;-70
2022/07/10 00:11:40;;;;;;;9.80;1.73;;;;;;;;;;5090334;28;20040;-70
2022/07/10 00:14:06;;;;;;;10.68;1.45;;;;;;;;;;5098745;28;20046;-70
2022/07/10 00:16:32;;;;;;;12.55;1.77;;;;;;;;;;5084933;28;20046;-70
2022/07/10 00:18:59;;;;;;;7.32;1.50;;;;;;;;;;5096417;28;20048;-69
2022/07/10 00:21:25;;;;;;;7.75;1.42;;;;;;;;;;5096835;28;20036;-70
2022/07/10 00:23:51;;;;;;;8.00;1.48;;;;;;;;;;5087627;28;20041;-69
2022/07/10 00:26:17;;;;;;;10.20;1.65;;;;;;;;;;5088496;28;20512;-70
2022/07/10 00:28:43;;;;;;;10.90;2.13;;;;;;;;;;5099965;28;20092;-70
2022/07/10 00:31:10;;;;;;;10.23;1.73;;;;;;;;;;5084909;28;20041;-70
2022/07/10 00:33:37;;;;;;;12.48;1.40;;;;;;;;;;5098179;28;20421;-70
2022/07/10 00:36:04;;;;;;;9.38;1.65;;;;;;;;;;5085532;28;20096;-70
2022/07/10 00:38:30;;;;;;;12.65;1.70;;;;;;;;;;5098425;28;20394;-70
2022/07/10 00:40:56;;;;;;;7.88;1.50;;;;;;;;;;5088900;28;20045;-70
2022/07/10 00:43:23;;;;;;;10.07;1.80;;;;;;;;;;5100511;28;20036;-70
2022/07/10 00:45:49;;;;;;;13.30;2.00;;;;;;;;;;5099128;28;20169;-70
2022/07/10 00:48:15;;;;;;;8.82;1.73;;;;;;;;;;5093022;28;20107;-70
2022/07/10 00:50:43;;;;;;;12.98;2.17;;;;;;;;;;5096104;28;20052;-70
2022/07/10 00:53:09;;;;;;;7.97;1.50;;;;;;;;;;5098685;28;20044;-70
2022/07/10 00:55:36;;;;;;;8.20;1.73;;;;;;;;;;5103229;28;20131;-70
2022/07/10 00:58:03;;;;;;;13.52;2.50;;;;;;;;;;5089035;28;20044;-70
2022/07/10 01:00:29;;;;;;;7.88;1.63;;;;;;;;;;5102033;28;20514;-70
2022/07/10 01:02:55;;;;;;;12.95;2.05;;;;;;;;;;5084203;28;20052;-70
2022/07/10 01:05:22;;;;;;;9.00;1.38;;;;;;;;;;5084451;28;20040;-69
2022/07/10 01:07:48;;;;;;;13.57;2.85;;;;;;;;;;5098380;28;20090;-69
2022/07/10 01:10:15;;;;;;;13.23;1.77;;;;;;;;;;5108583;28;20064;-70
2022/07/10 01:12:42;;;;;;;11.65;2.38;;;;;;;;;;5094083;28;20082;-70
2022/07/10 01:15:08;;;;;;;16.17;1.73;;;;;;;;;;5087869;28;20111;-70
2022/07/10 01:17:35;;;;;;;9.27;1.38;;;;;;;;;;5096735;28;20094;-70
2022/07/10 01:20:05;;;;;;;11.38;1.48;;;;;;;;;;5092036;28;20145;-70
2022/07/10 01:22:31;;;;;;;13.38;2.40;;;;;;;;;;5084363;28;20432;-70
2022/07/10 01:24:57;;;;;;;7.13;1.50;;;;;;;;;;5083185;28;20147;-70
2022/07/10 01:27:24;;;;;;;9.45;1.60;;;;;;;;;;5084160;28;20037;-70
2022/07/10 01:29:51;;;;;;;11.85;2.47;;;;;;;;;;5094572;28;20048;-71
2022/07/10 01:32:17;;;;;;;14.35;1.65;;;;;;;;;;5083689;28;20067;-70
2022/07/10 01:34:43;;;;;;;8.85;1.05;;;;;;;;;;5084166;28;20459;-70
2022/07/10 01:37:09;;;;;;;7.00;1.70;;;;;;;;;;5097329;28;20044;-71
2022/07/10 01:39:35;;;;;;;6.70;1.27;;;;;;;;;;5104169;28;20090;-70
2022/07/10 01:42:01;;;;;;;8.75;1.65;;;;;;;;;;5084253;28;20076;-70
2022/07/10 01:44:27;;;;;;;9.65;1.67;;;;;;;;;;5083127;28;20062;-70
2022/07/10 01:46:53;;;;;;;7.20;1.90;;;;;;;;;;5082561;28;20052;-70
2022/07/10 01:49:20;;;;;;;9.98;1.58;;;;;;;;;;5109742;28;20051;-70
2022/07/10 01:51:46;;;;;;;7.40;1.40;;;;;;;;;;5084033;28;20059;-70
2022/07/10 01:54:12;;;;;;;12.90;1.00;;;;;;;;;;5093031;28;20082;-70
2022/07/10 01:56:38;;;;;;;11.73;1.90;;;;;;;;;;5104255;28;20464;-70
2022/07/10 01:59:04;;;;;;;5.53;1.60;;;;;;;;;;5103525;28;20052;-70
2022/07/10 02:01:31;;;;;;;9.43;1.30;;;;;;;;;;5104536;28;20388;-70
2022/07/10 02:06:42;;;;;;;9.80;1.58;;;;;;;;;;5092993;28;20052;-70
2022/07/10 02:09:08;;;;;;;7.32;1.23;;;;;;;;;;5111487;28;20066;-69
2022/07/10 02:11:34;;;;;;;10.05;1.55;;;;;;;;;;5106410;28;20075;-70
2022/07/10 02:14:00;;;;;;;9.93;2.15;;;;;;;;;;5094831;28;20041;-71
2022/07/10 02:16:26;;;;;;;16.00;1.60;;;;;;;;;;5087512;28;20040;-70
2022/07/10 02:18:53;;;;;;;8.65;1.55;;;;;;;;;;5109901;28;20048;-70
2022/07/10 02:21:19;;;;;;;10.70;2.45;;;;;;;;;;5093203;28;20075;-71
2022/07/10 02:23:45;;;;;;;7.88;1.75;;;;;;;;;;5087480;28;20047;-69
2022/07/10 02:26:11;;;;;;;11.70;1.48;;;;;;;;;;5087554;28;20048;-71
2022/07/10 02:28:37;;;;;;;9.48;1.98;;;;;;;;;;5095414;28;20103;-71
2022/07/10 02:31:03;;;;;;;28.52;2.75;;;;;;;;;;5093500;28;20088;-71
2022/07/10 02:33:29;;;;;;;12.85;1.60;;;;;;;;;;5086625;28;20493;-71
2022/07/10 02:35:55;;;;;;;10.02;1.80;;;;;;;;;;5086180;28;20049;-70
2022/07/10 02:38:21;;;;;;;5.97;1.55;;;;;;;;;;5093421;28;20090;-70
2022/07/10 02:40:47;;;;;;;8.10;1.38;;;;;;;;;;5087242;28;20373;-71
2022/07/10 02:43:14;;;;;;;15.48;1.77;;;;;;;;;;5087164;28;20045;-71
2022/07/10 02:45:40;;;;;;;7.32;2.45;;;;;;;;;;5087342;28;20037;-71
2022/07/10 02:48:06;;;;;;;12.18;2.53;;;;;;;;;;5094535;28;20525;-71
2022/07/10 02:50:32;;;;;;;9.85;1.30;;;;;;;;;;5088333;28;20040;-71
2022/07/10 02:52:58;;;;;;;9.98;2.03;;;;;;;;;;5087154;28;20048;-71
2022/07/10 02:55:24;;;;;;;10.13;1.70;;;;;;;;;;5090440;28;20563;-70
2022/07/10 02:57:50;;;;;;;11.75;2.17;;;;;;;;;;5100781;28;20045;-71
2022/07/10 03:00:16;;;;;;;6.13;1.38;;;;;;;;;;5110139;28;20056;-70
2022/07/10 03:02:42;;;;;;;10.45;1.70;;;;;;;;;;5093081;28;20040;-70
2022/07/10 03:05:09;;;;;;;11.15;1.90;;;;;;;;;;5106965;28;20097;-71
2022/07/10 03:07:35;;;;;;;9.05;1.60;;;;;;;;;;5101883;28;20048;-71
2022/07/10 03:10:01;;;;;;;5.00;1.50;;;;;;;;;;5104396;28;20573;-70
2022/07/10 03:12:27;;;;;;;9.70;1.80;;;;;;;;;;5085744;28;20053;-70
2022/07/10 03:14:53;;;;;;;6.15;1.63;;;;;;;;;;5095627;28;20110;-70
2022/07/10 03:17:19;;;;;;;6.32;1.30;;;;;;;;;;5090931;28;20103;-70
2022/07/10 03:19:45;;;;;;;10.98;1.60;;;;;;;;;;5107239;28;20504;-71
2022/07/10 03:22:11;;;;;;;12.80;2.30;;;;;;;;;;5099695;28;20059;-70
2022/07/10 03:24:37;;;;;;;11.25;1.77;;;;;;;;;;5101407;28;20430;-71
2022/07/10 03:27:05;;;;;;;14.48;2.47;;;;;;;;;;5096133;28;20059;-70
2022/07/10 03:29:32;;;;;;;5.05;1.15;;;;;;;;;;5112672;28;20057;-70
2022/07/10 03:31:58;;;;;;;8.80;1.88;;;;;;;;;;5085712;28;20055;-70
2022/07/10 03:34:24;;;;;;;13.35;1.85;;;;;;;;;;5087467;28;20519;-71
2022/07/10 03:36:51;;;;;;;7.57;1.45;;;;;;;;;;5098770;28;20048;-70
2022/07/10 03:39:17;;;;;;;10.13;2.13;;;;;;;;;;5112434;28;20074;-70
2022/07/10 03:41:43;;;;;;;9.40;1.60;;;;;;;;;;5086378;28;20076;-70
2022/07/10 03:44:09;;;;;;;11.27;2.55;;;;;;;;;;5086258;28;20100;-71
2022/07/10 03:46:35;;;;;;;11.85;2.22;;;;;;;;;;5097507;28;20089;-70
2022/07/10 03:49:01;;;;;;;9.27;1.35;;;;;;;;;;5087440;28;20051;-71
2022/07/10 03:51:28;;;;;;;9.95;1.88;;;;;;;;;;5100053;28;20068;-71
2022/07/10 03:53:54;;;;;;;10.60;1.48;;;;;;;;;;5085912;28;20083;-69
2022/07/10 03:59:05;;;;;;;18.65;3.50;;;;;;;;;;5107565;28;20496;-71
2022/07/10 04:01:31;;;;;;;9.40;2.17;;;;;;;;;;5090446;28;20058;-70
2022/07/10 04:03:57;;;;;;;11.80;1.80;;;;;;;;;;5102769;28;20048;-70
2022/07/10 04:06:23;;;;;;;8.52;1.48;;;;;;;;;;5105934;28;20043;-70
2022/07/10 04:08:49;;;;;;;12.38;2.85;;;;;;;;;;5111805;28;20055;-70
2022/07/10 04:11:15;;;;;;;5.53;1.80;;;;;;;;;;5092602;28;20074;-70
2022/07/10 04:13:42;;;;;;;11.40;2.00;;;;;;;;;;5092502;28;20063;-70
2022/07/10 04:16:12;;;;;;;17.05;2.40;;;;;;;;;;5089427;28;20047;-70
2022/07/10 04:18:39;;;;;;;10.90;2.05;;;;;;;;;;5107141;28;20076;-70
2022/07/10 04:21:05;;;;;;;13.10;2.08;;;;;;;;;;5105706;27;20506;-70
2022/07/10 04:23:32;;;;;;;9.85;2.15;;;;;;;;;;5104047;28;20044;-70
2022/07/10 04:25:58;;;;;;;8.77;1.77;;;;;;;;;;5084620;28;20100;-70
2022/07/10 04:28:25;;;;;;;20.73;2.53;;;;;;;;;;5093218;28;20487;-71
2022/07/10 04:30:51;;;;;;;8.75;2.33;;;;;;;;;;5114266;28;20096;-70
2022/07/10 04:33:17;;;;;;;11.55;2.85;;;;;;;;;;5084900;28;20047;-70
2022/07/10 04:35:43;;;;;;;13.35;1.83;;;;;;;;;;5091982;28;20048;-71
2022/07/10 04:38:09;;;;;;;7.22;1.58;;;;;;;;;;5102077;28;20051;-71
2022/07/10 04:40:35;;;;;;;12.80;1.98;;;;;;;;;;5116571;28;20054;-71
2022/07/10 04:43:01;;;;;;;7.72;1.23;;;;;;;;;;5094534;28;20051;-70
2022/07/10 04:45:28;;;;;;;9.85;1.75;;;;;;;;;;5096965;28;20411;-70
2022/07/10 04:47:54;;;;;;;8.07;2.28;;;;;;;;;;5083973;28;20105;-71
2022/07/10 04:50:20;;;;;;;13.00;1.80;;;;;;;;;;5118906;28;20046;-71
2022/07/10 04:52:46;;;;;;;11.02;1.65;;;;;;;;;;5092342;28;20565;-71
2022/07/10 04:55:12;;;;;;;9.35;1.63;;;;;;;;;;5099077;28;20044;-70
2022/07/10 04:57:39;;;;;;;7.07;1.63;;;;;;;;;;5084833;28;20135;-71
2022/07/10 05:00:05;;;;;;;4.60;1.43;;;;;;;;;;5100371;28;20552;-71
2022/07/10 05:02:31;;;;;;;11.27;2.58;;;;;;;;;;5089300;28;20044;-71
2022/07/10 05:04:57;;;;;;;9.70;2.30;;;;;;;;;;5093716;28;20062;-70
2022/07/10 05:07:23;;;;;;;9.27;2.03;;;;;;;;;;5084468;28;20032;-70
2022/07/10 05:09:49;;;;;;;9.57;2.45;;;;;;;;;;5097059;28;20056;-71
2022/07/10 05:12:15;;;;;;;9.10;1.35;;;;;;;;;;5085683;28;20419;-70
2022/07/10 05:14:42;;;;;;;12.85;1.90;;;;;;;;;;5097529;28;20123;-71
2022/07/10 05:17:08;;;;;;;9.38;1.52;;;;;;;;;;5097745;28;20044;-71
2022/07/10 05:19:34;;;;;;;4.90;1.17;;;;;;;;;;5099593;28;20041;-70
2022/07/10 05:22:00;;;;;;;7.88;1.50;;;;;;;;;;5084451;28;20500;-70
2022/07/10 05:24:26;;;;;;;4.15;1.48;;;;;;;;;;5084340;28;20124;-70
2022/07/10 05:26:52;;;;;;;12.30;1.52;;;;;;;;;;5091247;28;20045;-70
2022/07/10 05:29:18;;;;;;;8.88;1.77;;;;;;;;;;5082706;28;20052;-70
2022/07/10 05:31:45;;;;;;;8.85;2.15;;;;;;;;;;5084057;28;20120;-71
2022/07/10 05:34:11;;;;;;;6.43;1.90;;;;;;;;;;5083141;28;20549;-70
2022/07/10 05:36:37;;;;;;;10.27;1.88;;;;;;;;;;5099815;28;20059;-70
2022/07/10 05:39:03;;;;;;;9.85;1.73;;;;;;;;;;5103851;28;20044;-70
2022/07/10 05:41:32;;;;;;;8.52;1.70;;;;;;;;;;5092860;28;20053;-70
2022/07/10 05:43:58;;;;;;;6.88;1.65;;;;;;;;;;5087148;28;20527;-70
2022/07/10 05:46:24;;;;;;;10.57;2.28;;;;;;;;;;5088505;28;20040;-70
2022/07/10 05:48:50;;;;;;;5.38;0.98;;;;;;;;;;5093306;28;20109;-70
2022/07/10 05:51:16;;;;;;;12.23;2.15;;;;;;;;;;5092975;28;20044;-70
2022/07/10 05:53:42;;;;;;;9.32;1.98;;;;;;;;;;5088239;28;20045;-70
2022/07/10 05:56:09;;;;;;;9.18;1.73;;;;;;;;;;5087002;28;20491;-69
2022/07/10 05:58:35;;;;;;;8.77;2.17;;;;;;;;;;5095121;28;20047;-70
2022/07/10 06:01:01;;;;;;;8.18;1.40;;;;;;;;;;5118207;28;20126;-69
2022/07/10 06:03:28;;;;;;;11.23;1.48;;;;;;;;;;5103424;28;20051;-70
2022/07/10 06:05:54;;;;;;;10.00;1.92;;;;;;;;;;5103448;28;20047;-70
2022/07/10 06:08:21;;;;;;;6.40;1.45;;;;;;;;;;5089888;28;20067;-69
2022/07/10 06:10:47;;;;;;;11.77;2.15;;;;;;;;;;5096742;28;20109;-71
2022/07/10 06:13:13;;;;;;;8.18;1.55;;;;;;;;;;5086902;28;20106;-71
2022/07/10 06:15:39;;;;;;;13.05;2.05;;;;;;;;;;5102036;28;20097;-70
2022/07/10 06:18:05;;;;;;;7.57;1.60;;;;;;;;;;5087399;28;20514;-69
2022/07/10 06:20:32;;;;;;;8.25;1.45;;;;;;;;;;5099534;28;20040;-69
2022/07/10 06:22:58;;;;;;;8.70;1.90;;;;;;;;;;5087504;28;20044;-70
2022/07/10 06:25:24;;;;;;;18.35;2.05;;;;;;;;;;5087553;28;20044;-69
2022/07/10 06:27:50;;;;;;;11.98;1.95;;;;;;;;;;5087218;28;20051;-69
2022/07/10 06:30:16;;;;;;;11.02;2.03;;;;;;;;;;5110127;28;20079;-69
2022/07/10 06:32:44;;;;;;;9.50;2.00;;;;;;;;;;5108145;28;20082;-70
2022/07/10 06:35:10;;;;;;;7.55;1.83;;;;;;;;;;5100952;28;20087;-70
2022/07/10 06:37:36;;;;;;;9.07;1.92;;;;;;;;;;5097692;28;20399;-70
2022/07/10 06:40:03;;;;;;;6.05;1.80;;;;;;;;;;5097115;28;20063;-71
2022/07/10 06:42:29;;;;;;;5.37;1.10;;;;;;;;;;5092096;28;20052;-71
2022/07/10 06:44:55;;;;;;;8.38;1.80;;;;;;;;;;5096481;28;20503;-69
2022/07/10 06:50:07;;;;;;;10.55;1.90;;;;;;;;;;5095427;28;20036;-70
2022/07/10 06:52:34;;;;;;;8.00;1.30;;;;;;;;;;5090772;28;20040;-69
2022/07/10 06:55:01;;;;;;;8.90;1.85;;;;;;;;;;5090615;28;20401;-69
2022/07/10 06:57:27;;;;;;;11.13;1.40;;;;;;;;;;5093186;28;20193;-71
2022/07/10 06:59:53;;;;;;;7.63;1.65;;;;;;;;;;5092936;28;20037;-70
2022/07/10 07:02:19;;;;;;;9.55;1.80;;;;;;;;;;5089826;28;20044;-70
2022/07/10 07:04:46;;;;;;;9.60;1.65;;;;;;;;;;5116627;28;20044;-70
2022/07/10 07:07:12;;;;;;;8.43;1.52;;;;;;;;;;5089122;28;20062;-70
2022/07/10 07:09:39;;;;;;;4.80;1.60;;;;;;;;;;5086532;28;20116;-70
2022/07/10 07:12:05;;;;;;;5.38;1.42;;;;;;;;;;5098568;28;20113;-70
2022/07/10 07:14:32;;;;;;;13.73;1.70;;;;;;;;;;5111454;28;20038;-70
2022/07/10 07:17:06;;;;;;;9.97;1.30;;;;;;;;;;5097826;28;20290;-70
2022/07/10 07:25:09;;;;;;;4.47;1.20;;;;;;;;;;5093276;28;20079;-70
2022/07/10 07:27:36;;;;;;;8.07;1.10;;;;;;;;;;5101585;28;20098;-70
2022/07/10 07:30:14;;;;;;;5.45;0.80;;;;;;;;;;5103761;28;20082;-70
2022/07/10 07:32:41;;;;;;;7.40;1.48;;;;;;;;;;5098829;28;20041;-69
2022/07/10 07:35:07;;;;;;;4.50;0.98;;;;;;;;;;5111142;28;20099;-69
2022/07/10 07:37:40;;;;;;;3.67;0.85;;;;;;;;;;5096557;28;20040;-68
2022/07/10 07:40:07;;;;;;;6.50;0.90;;;;;;;;;;5097387;28;20047;-70
2022/07/10 07:42:33;;;;;;;7.88;1.20;;;;;;;;;;5103258;28;20069;-71
2022/07/10 07:45:00;;;;;;;4.32;0.98;;;;;;;;;;5094736;28;20051;-68
2022/07/10 07:47:26;;;;;;;2.92;1.10;;;;;;;;;;5133934;27;20043;-68
2022/07/10 07:49:53;;;;;;;5.45;1.70;;;;;;;;;;5089827;28;20055;-67
2022/07/10 07:52:19;;;;;;;5.63;1.30;;;;;;;;;;5102432;28;20105;-68
2022/07/10 07:54:45;;;;;;;6.50;1.40;;;;;;;;;;5093936;28;20044;-68
2022/07/10 07:57:12;;;;;;;9.07;1.40;;;;;;;;;;5106540;28;20112;-68
2022/07/10 07:59:39;;;;;;;4.55;1.00;;;;;;;;;;5106033;28;20483;-68
2022/07/10 08:02:06;;;;;;;16.73;1.70;;;;;;;;;;5106193;28;20043;-68
2022/07/10 08:04:32;;;;;;;5.20;1.30;;;;;;;;;;5105460;28;20043;-68
2022/07/10 08:07:01;;;;;;;7.80;1.60;;;;;;;;;;5106414;28;20048;-69
2022/07/10 08:09:27;;;;;;;4.65;1.20;;;;;;;;;;5091749;28;20070;-68
2022/07/10 08:11:53;;;;;;;3.38;0.70;;;;;;;;;;5106049;28;20083;-68
2022/07/10 08:14:19;;;;;;;5.22;1.60;;;;;;;;;;5115529;28;20070;-68
2022/07/10 08:16:45;;;;;;;3.50;1.35;;;;;;;;;;5105836;28;20044;-68
2022/07/10 08:19:11;;;;;;;4.43;1.20;;;;;;;;;;5106086;28;20052;-68
2022/07/10 08:21:37;;;;;;;7.07;1.13;;;;;;;;;;5104667;28;20040;-68
2022/07/10 08:24:03;;;;;;;7.00;1.20;;;;;;;;;;5117569;28;20069;-68
2022/07/10 08:26:29;;;;;;;5.25;1.52;;;;;;;;;;5105792;28;20103;-68
2022/07/10 08:28:56;;;;;;;3.47;0.98;;;;;;;;;;5105906;28;20051;-69
2022/07/10 08:31:22;;;;;;;5.60;1.02;;;;;;;;;;5101520;28;20051;-68
2022/07/10 08:33:48;;;;;;;6.38;0.70;;;;;;;;;;5105454;28;20047;-68
2022/07/10 08:36:15;;;;;;;3.80;0.90;;;;;;;;;;5092416;28;20051;-69
2022/07/10 08:38:41;;;;;;;5.78;0.80;;;;;;;;;;5085354;28;20182;-68
2022/07/10 08:41:07;;;;;;;2.17;0.55;;;;;;;;;;5085993;28;20050;-69
2022/07/10 08:43:33;;;;;;;3.10;0.70;;;;;;;;;;5105464;28;20048;-69
2022/07/10 08:46:00;;;;;;;2.10;0.60;;;;;;;;;;5104269;28;20052;-67
2022/07/10 08:48:27;;;;;;;3.60;0.43;;;;;;;;;;5103930;28;20051;-68
2022/07/10 08:50:54;;;;;;;2.78;0.80;;;;;;;;;;5105289;28;20043;-68
2022/07/10 08:53:25;;;;;;;3.58;0.75;;;;;;;;;;5090601;28;20041;-67
2022/07/10 08:55:51;;;;;;;3.08;0.68;;;;;;;;;;5084826;28;20049;-67
2022/07/10 08:58:18;;;;;;;3.78;0.80;;;;;;;;;;5086584;28;20047;-68
2022/07/10 09:00:44;;;;;;;;;;;;;;;;;;5097406;28;20052;-67
2022/07/10 09:03:10;;;;;;;9.02;1.08;;;;;;;;;;5097555;28;19967;-67
2022/07/10 09:05:36;;;;;;;4.05;1.05;;;;;;;;;;5090513;28;20052;-67
2022/07/10 09:08:03;;;;;;;4.07;0.95;;;;;;;;;;5090058;28;20044;-68
2022/07/10 09:10:29;;;;;;;5.43;0.82;;;;;;;;;;5083940;28;20147;-68
2022/07/10 09:12:55;;;;;;;2.70;0.73;;;;;;;;;;5085828;28;20077;-68
2022/07/10 09:15:22;;;;;;;2.40;0.77;;;;;;;;;;5099591;28;20127;-68
2022/07/10 09:17:52;;;;;;;4.50;0.90;;;;;;;;;;5083898;28;20040;-68
2022/07/10 09:20:32;;;;;;;3.10;0.52;;;;;;;;;;5084416;28;20088;-67
2022/07/10 09:22:59;;;;;;;1.45;0.45;;;;;;;;;;5084978;28;20071;-67
2022/07/10 09:25:32;;;;;;;0.70;0.40;;;;;;;;;;5111324;28;20039;-68
2022/07/10 09:28:01;;;;;;;2.38;0.57;;;;;;;;;;5085802;28;20043;-67
2022/07/10 09:30:33;;;;;;;6.95;1.45;;;;;;;;;;5099631;28;20048;-67
2022/07/10 09:33:25;;;;;;;6.00;1.13;;;;;;;;;;5085340;28;20040;-67
2022/07/10 09:36:08;;;;;;;6.07;1.08;;;;;;;;;;5102241;28;20048;-68
2022/07/10 09:38:43;;;;;;;2.08;0.70;;;;;;;;;;5083088;28;20087;-68
2022/07/10 09:41:12;;;;;;;3.72;1.05;;;;;;;;;;5085062;28;20559;-68
2022/07/10 09:43:45;;;;;;;4.50;0.93;;;;;;;;;;5108794;28;20036;-68
2022/07/10 09:46:11;;;;;;;5.30;1.27;;;;;;;;;;5095786;28;20049;-68
2022/07/10 09:48:37;;;;;;;4.72;1.23;;;;;;;;;;5104026;28;20052;-67
2022/07/10 09:51:06;;;;;;;6.20;1.13;;;;;;;;;;5104644;28;20047;-68
2022/07/10 09:53:33;;;;;;;6.40;1.02;;;;;;;;;;5105422;28;20107;-68
2022/07/10 09:56:01;;;;;;;4.97;1.10;;;;;;;;;;5102409;28;20037;-71
2022/07/10 09:58:30;;;;;;;4.88;1.55;;;;;;;;;;5098312;28;20048;-71
2022/07/10 10:00:58;;;;;;;6.50;1.23;;;;;;;;;;5094121;28;20056;-71
2022/07/10 10:03:25;;;;;;;4.68;1.10;;;;;;;;;;5105617;28;20040;-71
2022/07/10 10:05:55;;;;;;;3.55;1.40;;;;;;;;;;5090593;28;20403;-71
2022/07/10 10:08:29;;;;;;;3.20;1.35;;;;;;;;;;5091638;28;20496;-71
2022/07/10 10:10:57;;;;;;;6.07;1.85;;;;;;;;;;5083960;28;20048;-70
2022/07/10 10:13:24;;;;;;;5.60;1.33;;;;;;;;;;5087450;28;20052;-71
2022/07/10 10:15:50;;;;;;;;;;;;;;;;;;5090118;28;20072;-72
2022/07/10 10:18:26;;;;;;;3.70;1.25;;;;;;;;;;5082284;28;19928;-74
2022/07/10 10:20:54;;;;;;;1.95;1.20;;;;;;;;;;5098207;28;20056;-75
2022/07/10 10:23:21;;;;;;;7.05;1.40;;;;;;;;;;5094842;28;20044;-73
2022/07/10 10:25:48;;;;;;;8.82;1.80;;;;;;;;;;5097667;28;20052;-72
2022/07/10 10:28:15;;;;;;;8.50;1.73;;;;;;;;;;5087553;28;20052;-72
2022/07/10 10:30:43;;;;;;;7.07;2.50;;;;;;;;;;5087643;28;20126;-72
2022/07/10 10:33:28;;;;;;;15.18;2.60;;;;;;;;;;5091755;28;20032;-72
2022/07/10 10:35:54;;;;;;;6.70;1.70;;;;;;;;;;5086370;28;20167;-71
2022/07/10 10:38:20;;;;;;;7.68;1.80;;;;;;;;;;5101593;28;20099;-71
2022/07/10 10:40:47;;;;;;;9.45;2.00;;;;;;;;;;5087259;28;20070;-71
2022/07/10 10:43:24;;;;;;;5.18;2.20;;;;;;;;;;5087263;28;20075;-70
2022/07/10 10:45:53;;;;;;;9.70;2.00;;;;;;;;;;5120086;28;20051;-71
2022/07/10 10:48:23;;;;;;;6.68;2.40;;;;;;;;;;5086463;28;20041;-72
2022/07/10 10:50:50;;;;;;;9.80;1.98;;;;;;;;;;5086163;28;20050;-74
2022/07/10 10:53:26;;;;;;;7.82;1.65;;;;;;;;;;5087026;28;20056;-73
2022/07/10 10:56:04;;;;;;;7.95;2.30;;;;;;;;;;5085932;28;20551;-74
2022/07/10 10:58:38;;;;;;;7.85;2.17;;;;;;;;;;5115625;28;20059;-73
2022/07/10 11:01:05;;;;;;;9.40;2.05;;;;;;;;;;5105411;28;20044;-73
2022/07/10 11:03:31;;;;;;;9.60;2.20;;;;;;;;;;5106808;28;20048;-72
2022/07/10 11:05:57;;;;;;;9.07;1.88;;;;;;;;;;5088369;28;20070;-71
2022/07/10 11:08:36;;;;;;;6.13;1.60;;;;;;;;;;5102596;28;20119;-71
2022/07/10 11:11:22;;;;;;;6.63;1.67;;;;;;;;;;5096528;28;20048;-72
2022/07/10 11:13:50;;;;;;;8.27;1.98;;;;;;;;;;5105338;28;20036;-72
2022/07/10 11:16:16;;;;;;;9.85;1.83;;;;;;;;;;5086762;28;20068;-72
2022/07/10 11:18:43;;;;;;;12.80;1.85;;;;;;;;;;5085112;28;20044;-71
2022/07/10 11:21:14;;;;;;;6.38;1.70;;;;;;;;;;5103411;28;20083;-72
2022/07/10 11:23:52;;;;;;;8.43;1.40;;;;;;;;;;5086659;28;20047;-72
2022/07/10 11:26:36;;;;;;;6.93;1.58;;;;;;;;;;5100960;28;20648;-72
2022/07/10 11:29:05;;;;;;;13.90;2.42;;;;;;;;;;5100068;28;20052;-72
2022/07/10 11:31:37;;;;;;;5.53;1.50;;;;;;;;;;5094559;28;20047;-71
2022/07/10 11:34:04;;;;;;;9.57;1.92;;;;;;;;;;5085951;28;20052;-71
2022/07/10 11:36:34;;;;;;;7.30;1.73;;;;;;;;;;5086633;28;20096;-71
2022/07/10 11:39:01;;;;;;;4.68;1.30;;;;;;;;;;5085385;28;20093;-71
2022/07/10 11:41:27;;;;;;;6.72;1.40;;;;;;;;;;5093882;28;20033;-71
2022/07/10 11:43:57;;;;;;;8.75;1.67;;;;;;;;;;5085144;28;20140;-71
2022/07/10 11:46:27;;;;;;;8.07;1.70;;;;;;;;;;5086123;28;20063;-71
2022/07/10 11:48:54;;;;;;;7.13;1.65;;;;;;;;;;5086093;28;20052;-71
2022/07/10 11:51:24;;;;;;;6.47;1.50;;;;;;;;;;5097967;28;20043;-71
2022/07/10 11:53:57;;;;;;;7.10;1.60;;;;;;;;;;5092255;28;20048;-71
2022/07/10 11:56:23;;;;;;;7.45;1.83;;;;;;;;;;5091531;28;20051;-70
2022/07/10 11:58:59;;;;;;;7.38;2.08;;;;;;;;;;5092489;28;20047;-70
2022/07/10 12:01:25;;;;;;;8.80;1.40;;;;;;;;;;5105591;28;20047;-70
2022/07/10 12:03:58;;;;;;;8.60;1.88;;;;;;;;;;5099186;28;20122;-70
2022/07/10 12:06:25;;;;;;;4.65;1.20;;;;;;;;;;5084402;28;20056;-70
2022/07/10 12:08:52;;;;;;;5.47;1.35;;;;;;;;;;5085242;28;20083;-70
2022/07/10 12:11:18;;;;;;;12.32;1.63;;;;;;;;;;5099134;28;20044;-70
2022/07/10 12:13:45;;;;;;;3.85;1.55;;;;;;;;;;5111464;28;20043;-71
2022/07/10 12:16:11;;;;;;;8.07;1.88;;;;;;;;;;5088274;28;20048;-70
2022/07/10 12:18:40;;;;;;;10.55;2.15;;;;;;;;;;5101994;28;20100;-70
2022/07/10 12:21:07;;;;;;;4.00;1.33;;;;;;;;;;5099650;28;20532;-70
2022/07/10 12:23:39;;;;;;;6.30;1.40;;;;;;;;;;5095579;28;20133;-70
2022/07/10 12:26:06;;;;;;;4.03;0.77;;;;;;;;;;5089337;28;20052;-70
2022/07/10 12:28:48;;;;;;;3.25;0.80;;;;;;;;;;5085335;28;20062;-70
2022/07/10 12:31:20;;;;;;;2.83;1.00;;;;;;;;;;5099595;28;20101;-69
2022/07/10 12:33:50;;;;;;;8.18;2.08;;;;;;;;;;5084382;28;20052;-70
2022/07/10 12:36:17;;;;;;;4.07;1.08;;;;;;;;;;5087746;28;20055;-70
2022/07/10 12:38:43;;;;;;;3.50;1.00;;;;;;;;;;5085053;28;20455;-69
2022/07/10 12:41:10;;;;;;;6.68;1.35;;;;;;;;;;5085939;28;20037;-69
2022/07/10 12:43:36;;;;;;;5.57;0.82;;;;;;;;;;5098270;28;20056;-69
2022/07/10 12:46:35;;;;;;;4.68;1.02;;;;;;;;;;5088591;28;20115;-70
2022/07/10 12:49:07;;;;;;;5.63;1.23;;;;;;;;;;5052234;28;20053;-69
2022/07/10 12:51:35;;;;;;;6.22;1.17;;;;;;;;;;5029237;28;20300;-70
2022/07/10 12:54:01;;;;;;;8.90;1.48;;;;;;;;;;5056608;28;20051;-70
2022/07/10 12:56:31;;;;;;;8.77;1.60;;;;;;;;;;5031202;28;20055;-69
2022/07/10 12:59:00;;;;;;;7.25;1.40;;;;;;;;;;5054999;28;20053;-69
2022/07/10 13:01:28;;;;;;;3.70;1.50;;;;;;;;;;5042312;28;20064;-71
2022/07/10 13:04:01;;;;;;;3.58;1.27;;;;;;;;;;5059757;28;20045;-69
2022/07/10 13:06:31;;;;;;;4.32;1.55;;;;;;;;;;5043081;28;20112;-69
2022/07/10 13:08:58;;;;;;;4.75;1.27;;;;;;;;;;5025575;28;20061;-69
2022/07/10 13:11:24;;;;;;;8.30;1.50;;;;;;;;;;5050277;28;20228;-69
2022/07/10 13:13:51;;;;;;;5.75;2.00;;;;;;;;;;5045410;28;20063;-69
2022/07/10 13:16:17;;;;;;;7.53;1.75;;;;;;;;;;5026589;28;20041;-70
2022/07/10 13:18:44;;;;;;;5.00;1.75;;;;;;;;;;5060855;28;20064;-69
2022/07/10 13:21:13;;;;;;;7.25;1.55;;;;;;;;;;5057796;28;20041;-70
2022/07/10 13:23:39;;;;;;;5.00;1.67;;;;;;;;;;5046864;28;20053;-70
2022/07/10 13:26:09;;;;;;;3.17;1.08;;;;;;;;;;5087202;28;20467;-69
2022/07/10 13:28:35;;;;;;;6.53;2.00;;;;;;;;;;5094115;28;20055;-70
2022/07/10 13:31:02;;;;;;;7.28;1.38;;;;;;;;;;5088975;28;20063;-70
2022/07/10 13:33:28;;;;;;;3.20;1.17;;;;;;;;;;5083978;28;20060;-70
2022/07/10 13:35:54;;;;;;;6.75;1.77;;;;;;;;;;5089828;28;20153;-69
2022/07/10 13:38:21;;;;;;;9.13;1.48;;;;;;;;;;5097477;28;20110;-69
2022/07/10 13:40:47;;;;;;;3.65;1.25;;;;;;;;;;5084321;28;20052;-69
2022/07/10 13:43:16;;;;;;;4.22;1.38;;;;;;;;;;5098591;28;20087;-69
2022/07/10 13:45:45;;;;;;;6.97;1.17;;;;;;;;;;5086884;28;20036;-69
2022/07/10 13:48:15;;;;;;;8.48;1.77;;;;;;;;;;5088714;28;20082;-69
2022/07/10 13:50:41;;;;;;;3.15;1.10;;;;;;;;;;5083327;28;20049;-69
2022/07/10 13:53:08;;;;;;;6.85;1.52;;;;;;;;;;5083991;28;20411;-69
2022/07/10 13:55:34;;;;;;;5.67;1.20;;;;;;;;;;5084049;28;20062;-70
2022/07/10 13:58:01;;;;;;;9.15;1.40;;;;;;;;;;5126016;27;20044;-70
2022/07/10 14:00:27;;;;;;;4.65;1.70;;;;;;;;;;5094345;28;20502;-70
2022/07/10 14:02:55;;;;;;;3.67;1.27;;;;;;;;;;5103833;28;20040;-69
2022/07/10 14:05:22;;;;;;;3.63;1.40;;;;;;;;;;5106699;28;20108;-70
2022/07/10 14:07:48;;;;;;;3.20;1.10;;;;;;;;;;5111827;28;20048;-70
2022/07/10 14:10:15;;;;;;;6.72;1.45;;;;;;;;;;5115880;28;20067;-69
2022/07/10 14:12:41;;;;;;;5.32;1.30;;;;;;;;;;5089153;28;20399;-69
2022/07/10 14:15:08;;;;;;;4.65;1.35;;;;;;;;;;5088047;28;20124;-69
2022/07/10 14:17:34;;;;;;;6.28;1.20;;;;;;;;;;5111267;28;20040;-69
2022/07/10 14:20:00;;;;;;;5.63;1.27;;;;;;;;;;5087979;28;20047;-69
2022/07/10 14:22:28;;;;;;;3.60;1.27;;;;;;;;;;5087470;28;20132;-69
2022/07/10 14:24:54;;;;;;;5.18;1.27;;;;;;;;;;5087717;28;20072;-70
2022/07/10 14:27:20;;;;;;;4.97;1.27;;;;;;;;;;5112579;28;20521;-69
2022/07/10 14:29:46;;;;;;;3.30;1.50;;;;;;;;;;5088785;28;20045;-69
2022/07/10 14:32:13;;;;;;;5.97;1.75;;;;;;;;;;5087852;28;20044;-69
2022/07/10 14:34:39;;;;;;;6.13;1.40;;;;;;;;;;5093389;28;20046;-70
2022/07/10 14:37:05;;;;;;;6.22;1.50;;;;;;;;;;5106998;28;20035;-70
2022/07/10 14:39:31;;;;;;;4.00;1.33;;;;;;;;;;5091073;28;20395;-70
2022/07/10 14:41:57;;;;;;;5.57;1.23;;;;;;;;;;5094754;28;20151;-70
2022/07/10 14:44:23;;;;;;;4.53;1.35;;;;;;;;;;5106593;28;20051;-70
2022/07/10 14:46:49;;;;;;;4.75;1.58;;;;;;;;;;5096812;28;20051;-70
2022/07/10 14:49:15;;;;;;;5.32;1.17;;;;;;;;;;5095881;28;20052;-70
2022/07/10 14:51:42;;;;;;;5.60;1.17;;;;;;;;;;5086971;28;20037;-69
2022/07/10 14:54:09;;;;;;;7.25;1.63;;;;;;;;;;5086198;28;20252;-69
2022/07/10 14:56:35;;;;;;;2.88;0.95;;;;;;;;;;5093603;28;20040;-69